Englewood, CO (80110)

1:22 PM MST on December 10, 2016 (GMT -0700)
South Broadway Heights | | Change Station

Elev 5387 ft 39.65 °N, 104.98 °W | Updated 41 seconds ago

Mostly Cloudy
Mostly Cloudy
52.0 °F
Feels Like 52.0 °F
N
1.0
Wind Variable Wind from SSW
Gusts 1.0 mph

Today
High -- | Low -- °F
--% Chance of Precip.
Yesterday
High -- | Low -- °F
Precip. -- in
Pressure 29.75 in
Visibility 10.0 miles
Clouds Few 8000 ft
Scattered Clouds 14000 ft
Mostly Cloudy 18000 ft
Dew Point 28 °F
Humidity 40%
Rainfall 0.00 in
Snow Depth Not available.
7:10 AM 4:35 PM
Waxing Gibbous, 86% visible
METAR KAPA 101953Z 01009KT 10SM FEW080 SCT140 BKN180 15/M04 A2977 RMK AO2 SLP073 SHSN OMTNS DSNT W-NW T01501044
Pressure 29.75 in
Visibility 10.0 miles
Clouds Few 8000 ft
Scattered Clouds 14000 ft
Mostly Cloudy 18000 ft
Dew Point 28 °F
Humidity 40%
Rainfall 0.00 in
Snow Depth Not available.
7:10 AM 4:35 PM
Waxing Gibbous, 86% visible
METAR KAPA 101953Z 01009KT 10SM FEW080 SCT140 BKN180 15/M04 A2977 RMK AO2 SLP073 SHSN OMTNS DSNT W-NW T01501044

10-Day Weather Forecast

Almanac

Astronomy

Dec. 10, 2016 Rise Set
Actual Time
Civil Twilight
Nautical Twilight
Astronomical Twilight
Moon
Length of Visible Light
Length of Day
Tomorrow will be .
, % of the Moon is Illuminated

Today's Extremes

State Highs State Lows

Community

WunderPhotos

Upload Photos

1,956,651 photos uploaded!

WunderBlog® & News

Nearby

Air Quality

  Air Quality AQ Index Pollutant
Not available.

Snow Depth

Station Depth Elevation

Earthquake Activity

City Distance Mag. Time & Date
Minimum magnitude displayed is 2.5.

Coastal Water Temperatures

Place Temperature

Stations

Nearby Weather Stations

Station Location Temp. Windchill Dew Point Humidity Wind Precip. Elev Updated Type
                   

Watches & Warnings

There are currently no watches in effect.